Racine, Wisconsin
Current Conditions -  °F | °C
As of 6:53 PM on Friday 24 Oct 2014 (Local Time) from KRAC Reporting Station
Haze Haze  
Wind Chill: 12°   Ceiling: 8000
Heat Index: 12°   Visibility: 4mi
Dew Point: 10°   Wind: 5mph
Humidity: 89%   Direction: 180°S
Pressure: 29.96"   Gusts: NA
Location:  42.73°N, 87.79°W
Report Text: KRAC 242353Z AUTO 18004KT 4SM BR BKN080 12/10 A2996 RMK AO2 SLP148 T01170100 10161 20111 56004
Loading
Personal Weather Stations






























Interactive Weather Map
Tropical Storm Tracking
New forecast layout! Learn more

10-Day Weather Forecast

Advertisements
Track Severe Weather on mobile